Ames, New York
Current Conditions -  °F | °C
As of 8:55 AM on Sunday 25 Jan 2015 (Local Time) from KNY0 Reporting Station
Broken Clouds Broken Clouds  
Wind Chill:   Ceiling: 2500
Heat Index: 21°   Visibility: 10mi
Dew Point: 10°   Wind: 14mph
Humidity: 62%   Direction: 320°NW
Pressure: 29.67"   Gusts: 21mph
Location:  42.8548°N, 74.5942°W
Report Text: KNY0 251355Z AUTO 32012G18KT 10SM BKN025 BKN032 M06/M12 A2967 RMK AO2 T10631125
Loading
Personal Weather Stations






























Interactive Weather Map New forecast layout! Learn more

10-Day Weather Forecast

Advertisements
Track Severe Weather on mobile